Main page
METAR-TAF:

METAR-TAF

Airports :

Josefa Camejo International Airport

Paraguaná, Venezuela

latitude: 11-47N, longitude: 070-09W, elevation: 23 m

METAR: missing

Time: 04:18 (08:18 UTC)

Forecast

The report was made 4 hours and 18 minutes ago, at 04:00 UTC
Forecast valid from 18 at 06 UTC to 19 at 06 UTC
Wind 5 kt from the Northeast
Visibility 10 km or more
Few clouds at a height of 1300 ft
Temporary
from 18 at 06 UTC to 18 at 10 UTC
Visibility: 8000 m
Scattered clouds at a height of 1300 ft, Cumulonimbus.
Broken clouds at a height of 6000 ft
thunderstorm, drizzle,

TAF: SVJC 180400Z 1806/1906 05005KT 9999 FEW013 TX33/1803Z TN24/1809Z TEMPO 1806/1810 8000 TSDZ SCT013CB BKN060

Weather observations and forecasts of more than 4000 airports (METAR and TAF reports).

The available stations are represented by yellow and red dots on the map.

Hover mouse over dot to see the name of the station.

Then click to see weather observations and forecasts.

To change the map : click on the green buttons with a black cross to zoom in, on the green button with a dash to zoom out, or on the green arrows for adjacent maps.


METAR-TAF: